Portada
METAR-TAF:

METAR-TAF

Aeroports :

Changsha, Xina

latitud: 28-11N, longitud: 113-13E, altitud: 66 m

Observació

L'informe es va fer fa 29 minuts, a les 05:00 UTC
Vent 6 kt del Nord/Nord-Oest, variant entre Oest/Nord-Oest i Nord/Nord-Est
Temperatura 24°C
Humitat 74%
Pressió 1024 hPa
Visibilitat 10 km o més
Cel ennuvolat a una alçada de 3000 ft
Cel cobert a una alçada de 5000 ft

METAR: ZGHA 140500Z 33003MPS 300V030 9999 BKN030 OVC050 24/19 Q1024 NOSIG

Hora: 13:29 (05:29 UTC)

Pronòstic

L'informe es va fer fa 10 hores i 27 minuts, a les 19:02 UTC
Pronòstic vàlid del 14 a les 00 UTC al 14 a les 24 UTC
Vent 8 kt del Nord/Nord-Est
Visibilitat: 5000 m
Cel ennuvolat a una alçada de 2000 ft
Cel cobert a una alçada de 5000 ft
boirina

TAF: ZGHA 131902Z 1400/1424 03004MPS 5000 BR BKN020 OVC050 TX21/1407Z TN18/1422Z

Observacions i pronòstics meteorològics de més de 4000 aeroports (METAR i TAF).

Les estacions disponibles són els punts grocs i vermells al mapa.

Posi el ratolí al punt desitjat per veure el nom de l'estació.

Feu clic per veure les observacions i els pronòstics meteorològics.

Per canviar el mapa: feu clic els botons verds amb una creu de color negre per apropar; al botó verd amb un guió per allunyar la imatge; o en les fletxes verdes per a mapes adjacents.


METAR-TAF: